East Point, Florida
Current Conditions -  °F | °C
As of 8:53 AM on Wednesday 28 Jan 2015 (Local Time) from KAAF Reporting Station
Clear Clear  
Wind Chill: 41°   Ceiling: Unl
Heat Index: 46°   Visibility: 10mi
Dew Point: 36°   Wind: 9mph
Humidity: 68%   Direction: 50°NE
Pressure: 30.25"   Gusts: NA
Location:  29.8852°N, 84.8748°W
Report Text: KAAF 281353Z AUTO 05008KT 10SM CLR 08/02 A3025 RMK AO2 SLP243 T00780022 TSNO
Loading
Personal Weather Stations






























Interactive Weather Map New forecast layout! Learn more

10-Day Weather Forecast

Advertisements
Track Severe Weather on mobile